createdAt,value
2023-01-29T00:02:07.470Z,2.54
2023-01-29T00:04:35.427Z,2.55
2023-01-29T00:07:03.394Z,2.56
2023-01-29T00:09:32.069Z,2.59
2023-01-29T00:12:00.039Z,2.54
2023-01-29T00:14:28.688Z,2.57
2023-01-29T00:16:56.690Z,2.58
2023-01-29T00:19:26.034Z,2.55
2023-01-29T00:21:53.914Z,2.57
2023-01-29T00:24:22.325Z,2.60
2023-01-29T00:26:50.536Z,2.59
2023-01-29T00:29:18.662Z,2.60
2023-01-29T00:31:47.336Z,2.59
2023-01-29T00:34:15.361Z,2.57
2023-01-29T00:36:45.663Z,2.57
2023-01-29T00:39:13.563Z,2.62
2023-01-29T00:41:58.890Z,2.62
2023-01-29T00:44:44.061Z,2.64
2023-01-29T00:47:30.922Z,2.66
2023-01-29T00:49:59.149Z,2.63
2023-01-29T00:52:28.867Z,2.67
2023-01-29T00:54:58.480Z,2.64
2023-01-29T00:57:27.679Z,2.68
2023-01-29T00:59:55.604Z,2.69
2023-01-29T01:02:41.693Z,2.66
2023-01-29T01:05:18.015Z,2.66
2023-01-29T01:07:48.490Z,2.69
2023-01-29T01:10:21.262Z,2.70
2023-01-29T01:12:51.754Z,2.71
2023-01-29T01:15:19.995Z,2.67
2023-01-29T01:17:48.951Z,2.69
2023-01-29T01:20:17.159Z,2.69
2023-01-29T01:22:45.303Z,2.65
2023-01-29T01:25:14.673Z,2.68
2023-01-29T01:27:42.773Z,2.64
2023-01-29T01:30:12.628Z,2.69
2023-01-29T01:32:41.331Z,2.71
2023-01-29T01:35:10.348Z,2.71
2023-01-29T01:37:38.772Z,2.69
2023-01-29T01:40:12.858Z,2.71
2023-01-29T01:42:42.263Z,2.70
2023-01-29T01:45:19.991Z,2.73
2023-01-29T01:47:49.500Z,2.71
2023-01-29T01:50:19.985Z,2.69
2023-01-29T01:52:52.024Z,2.70
2023-01-29T01:55:22.398Z,2.69
2023-01-29T01:57:54.411Z,2.70
2023-01-29T02:00:23.633Z,2.69
2023-01-29T02:03:09.272Z,2.66
2023-01-29T02:05:55.491Z,2.65
2023-01-29T02:08:45.979Z,2.69
2023-01-29T02:11:14.553Z,2.65
2023-01-29T02:13:43.879Z,2.68
2023-01-29T02:16:11.760Z,2.68
2023-01-29T02:18:39.726Z,2.68
2023-01-29T02:21:25.420Z,2.64
2023-01-29T02:24:17.375Z,2.63
2023-01-29T02:26:56.933Z,2.57
2023-01-29T02:29:34.511Z,2.60
2023-01-29T02:32:14.368Z,2.59
2023-01-29T02:35:06.164Z,2.62
2023-01-29T02:37:39.498Z,2.59
2023-01-29T02:40:15.603Z,2.59
2023-01-29T02:42:50.191Z,2.58
2023-01-29T02:45:20.748Z,2.60
2023-01-29T02:47:53.690Z,2.62
2023-01-29T02:50:23.607Z,2.62
2023-01-29T02:52:59.469Z,2.63
2023-01-29T02:55:31.994Z,2.60
2023-01-29T02:58:04.687Z,2.65
2023-01-29T03:00:37.896Z,2.63
2023-01-29T03:03:10.492Z,2.62
2023-01-29T03:05:45.103Z,2.56
2023-01-29T03:08:16.778Z,2.59
2023-01-29T03:10:49.355Z,2.57
2023-01-29T03:13:20.580Z,2.58
2023-01-29T03:16:01.494Z,2.57
2023-01-29T03:18:32.431Z,2.58
2023-01-29T03:21:24.956Z,2.56
2023-01-29T03:24:11.379Z,2.55
2023-01-29T03:26:57.129Z,2.53
2023-01-29T03:29:42.200Z,2.53
2023-01-29T03:32:12.205Z,2.49
2023-01-29T03:34:43.704Z,2.50
2023-01-29T03:37:16.004Z,2.46
2023-01-29T03:39:43.982Z,2.48
2023-01-29T03:42:17.121Z,2.45
2023-01-29T03:44:54.726Z,2.47
2023-01-29T03:47:27.331Z,2.53
2023-01-29T03:50:00.249Z,2.49
2023-01-29T03:52:30.411Z,2.46
2023-01-29T03:55:01.994Z,2.47
2023-01-29T03:57:35.277Z,2.46
2023-01-29T04:00:08.514Z,2.46
2023-01-29T04:02:43.681Z,2.47
2023-01-29T04:05:15.409Z,2.46
2023-01-29T04:07:45.240Z,2.45
2023-01-29T04:10:17.238Z,2.44
2023-01-29T04:12:48.978Z,2.42
2023-01-29T04:15:17.791Z,2.42
2023-01-29T04:17:51.706Z,2.41
2023-01-29T04:20:19.891Z,2.42
2023-01-29T04:22:49.512Z,2.39
2023-01-29T04:25:26.524Z,2.38
2023-01-29T04:27:59.446Z,2.38
2023-01-29T04:30:34.619Z,2.38
2023-01-29T04:33:12.683Z,2.37
2023-01-29T04:35:49.236Z,2.37
2023-01-29T04:38:33.404Z,2.38
2023-01-29T04:41:06.840Z,2.39
2023-01-29T04:43:40.138Z,2.36
2023-01-29T04:46:13.996Z,2.39
2023-01-29T04:48:51.471Z,2.37
2023-01-29T04:51:23.992Z,2.33
2023-01-29T04:53:58.373Z,2.34
2023-01-29T04:56:32.591Z,2.35
2023-01-29T04:59:03.470Z,2.35
2023-01-29T05:01:33.266Z,2.33
2023-01-29T05:04:05.861Z,2.36
2023-01-29T05:06:33.809Z,2.35
2023-01-29T05:09:02.277Z,2.34
2023-01-29T05:11:32.067Z,2.32
2023-01-29T05:14:00.279Z,2.31
2023-01-29T05:16:30.052Z,2.31
2023-01-29T05:18:58.034Z,2.31
2023-01-29T05:21:28.373Z,2.30
2023-01-29T05:24:10.609Z,2.31
2023-01-29T05:26:56.044Z,2.32
2023-01-29T05:29:24.015Z,2.29
2023-01-29T05:31:51.952Z,2.30
2023-01-29T05:34:19.966Z,2.30
2023-01-29T05:36:49.243Z,2.31
2023-01-29T05:39:17.216Z,2.30
2023-01-29T05:41:45.675Z,2.31
2023-01-29T05:44:14.025Z,2.32
2023-01-29T05:46:42.014Z,2.32
2023-01-29T05:49:09.967Z,2.32
2023-01-29T05:51:37.903Z,2.33
2023-01-29T05:54:07.249Z,2.32
2023-01-29T05:56:35.123Z,2.33
2023-01-29T05:59:03.040Z,2.33
2023-01-29T06:01:30.969Z,2.35
2023-01-29T06:03:58.953Z,2.35
2023-01-29T06:06:26.851Z,2.33
2023-01-29T06:08:54.804Z,2.31
2023-01-29T06:11:24.171Z,2.32
2023-01-29T06:13:52.119Z,2.32
2023-01-29T06:16:20.133Z,2.30
2023-01-29T06:18:48.026Z,2.30
2023-01-29T06:21:16.250Z,2.31
2023-01-29T06:23:44.829Z,2.33
2023-01-29T06:26:13.936Z,2.35
2023-01-29T06:28:43.895Z,2.37
2023-01-29T06:31:30.397Z,2.36
2023-01-29T06:34:00.108Z,2.38
2023-01-29T06:36:28.125Z,2.39
2023-01-29T06:38:56.031Z,2.41
2023-01-29T06:41:25.590Z,2.40
2023-01-29T06:43:55.037Z,2.37
2023-01-29T06:46:22.920Z,2.38
2023-01-29T06:48:50.882Z,2.37
2023-01-29T06:51:18.789Z,2.33
2023-01-29T06:53:47.033Z,2.33
2023-01-29T06:56:15.014Z,2.28
2023-01-29T06:58:43.610Z,2.28
2023-01-29T07:01:25.465Z,2.29
2023-01-29T07:04:01.152Z,2.25
2023-01-29T07:06:29.956Z,2.26
2023-01-29T07:08:58.058Z,2.23
2023-01-29T07:11:25.986Z,2.21
2023-01-29T07:13:53.891Z,2.17
2023-01-29T07:16:23.528Z,2.18
2023-01-29T07:18:51.538Z,2.19
2023-01-29T07:21:19.509Z,2.18
2023-01-29T07:23:47.422Z,2.19
2023-01-29T07:26:15.400Z,2.19
2023-01-29T07:28:43.324Z,2.17
2023-01-29T07:31:13.874Z,2.19
2023-01-29T07:33:44.377Z,2.15
2023-01-29T07:36:13.008Z,2.17
2023-01-29T07:38:40.946Z,2.18
2023-01-29T07:41:08.942Z,2.17
2023-01-29T07:43:36.980Z,2.20
2023-01-29T07:46:05.739Z,2.22
2023-01-29T07:48:33.834Z,2.23
2023-01-29T07:51:03.265Z,2.25
2023-01-29T07:53:31.860Z,2.33
2023-01-29T07:55:59.761Z,2.34
2023-01-29T07:58:27.744Z,2.38
2023-01-29T08:00:55.669Z,2.41
2023-01-29T08:03:23.626Z,2.42
2023-01-29T08:05:51.520Z,2.44
2023-01-29T08:08:20.864Z,2.54
2023-01-29T08:10:48.764Z,2.55
2023-01-29T08:13:16.668Z,2.57
2023-01-29T08:15:46.170Z,2.63
2023-01-29T08:18:14.525Z,2.62
2023-01-29T08:20:42.462Z,2.63
2023-01-29T08:23:14.915Z,2.69
2023-01-29T08:25:44.272Z,2.66
2023-01-29T08:28:12.812Z,2.76
2023-01-29T08:30:40.824Z,2.76
2023-01-29T08:33:08.838Z,2.75
2023-01-29T08:35:36.957Z,2.83
2023-01-29T08:38:05.859Z,2.88
2023-01-29T08:40:35.119Z,2.86
2023-01-29T08:43:08.754Z,2.83
2023-01-29T08:45:38.725Z,2.91
2023-01-29T08:48:07.465Z,2.91
2023-01-29T08:50:35.564Z,2.94
2023-01-29T08:53:04.896Z,2.96
2023-01-29T08:55:32.770Z,2.95
2023-01-29T08:58:00.706Z,2.97
2023-01-29T09:00:29.998Z,2.99
2023-01-29T09:02:59.547Z,3.00
2023-01-29T09:05:27.564Z,3.01
2023-01-29T09:07:57.736Z,3.06
2023-01-29T09:10:25.893Z,3.05
2023-01-29T09:12:54.001Z,3.06
2023-01-29T09:15:21.899Z,2.97
2023-01-29T09:17:51.174Z,3.02
2023-01-29T09:20:20.609Z,3.07
2023-01-29T09:22:49.412Z,3.00
2023-01-29T09:25:17.681Z,3.10
2023-01-29T09:27:45.786Z,3.02
2023-01-29T09:30:14.358Z,3.10
2023-01-29T09:32:57.555Z,3.10
2023-01-29T09:35:26.909Z,3.08
2023-01-29T09:37:54.794Z,3.12
2023-01-29T09:40:27.327Z,3.08
2023-01-29T09:42:59.378Z,3.14
2023-01-29T09:45:29.142Z,3.13
2023-01-29T09:47:59.775Z,3.10
2023-01-29T09:50:32.733Z,3.10
2023-01-29T09:53:04.707Z,3.15
2023-01-29T09:55:35.334Z,3.19
2023-01-29T09:58:07.596Z,3.17
2023-01-29T10:00:39.179Z,3.22
2023-01-29T10:03:22.470Z,3.22
2023-01-29T10:06:05.885Z,3.22
2023-01-29T10:08:56.028Z,3.24
2023-01-29T10:11:34.374Z,3.25
2023-01-29T10:14:09.167Z,3.25
2023-01-29T10:16:46.533Z,3.30
2023-01-29T10:19:39.848Z,3.29
2023-01-29T10:22:22.632Z,3.27
2023-01-29T10:24:54.032Z,3.33
2023-01-29T10:27:22.503Z,3.32
2023-01-29T10:29:52.393Z,3.29
2023-01-29T10:32:24.835Z,3.30
2023-01-29T10:34:57.653Z,3.33
2023-01-29T10:37:30.133Z,3.37
2023-01-29T10:40:00.036Z,3.37
2023-01-29T10:42:31.307Z,3.40
2023-01-29T10:45:08.413Z,3.39
2023-01-29T10:47:55.843Z,3.37
2023-01-29T10:50:33.785Z,3.37
2023-01-29T10:53:18.002Z,3.36
2023-01-29T10:55:55.259Z,3.37
2023-01-29T10:58:29.537Z,3.36
2023-01-29T11:00:57.676Z,3.36
2023-01-29T11:03:28.860Z,3.35
2023-01-29T11:06:03.056Z,3.37
2023-01-29T11:08:35.929Z,3.40
2023-01-29T11:11:09.464Z,3.40
2023-01-29T11:13:40.050Z,3.43
2023-01-29T11:16:09.789Z,3.44
2023-01-29T11:18:51.560Z,3.45
2023-01-29T11:21:19.437Z,3.52
2023-01-29T11:23:49.150Z,3.51
2023-01-29T11:26:20.816Z,3.54
2023-01-29T11:28:49.857Z,3.55
2023-01-29T11:31:23.520Z,3.59
2023-01-29T11:33:54.106Z,3.62
2023-01-29T11:36:28.432Z,3.61
2023-01-29T11:39:14.703Z,3.63
2023-01-29T11:41:44.774Z,3.64
2023-01-29T11:44:23.919Z,3.68
2023-01-29T11:46:51.878Z,3.70
2023-01-29T11:49:34.305Z,3.70
2023-01-29T11:52:04.253Z,3.75
2023-01-29T11:54:37.868Z,3.75
2023-01-29T11:57:06.026Z,3.77
2023-01-29T11:59:42.771Z,3.76
2023-01-29T12:02:24.053Z,3.76
2023-01-29T12:04:52.292Z,3.77
2023-01-29T12:07:20.354Z,3.78
2023-01-29T12:09:56.377Z,3.79
2023-01-29T12:12:33.472Z,3.78
2023-01-29T12:15:26.016Z,3.82
2023-01-29T12:18:00.489Z,3.80
2023-01-29T12:20:35.346Z,3.80
2023-01-29T12:23:10.387Z,3.81
2023-01-29T12:25:45.022Z,3.82
2023-01-29T12:28:32.676Z,3.80
2023-01-29T12:31:10.552Z,3.83
2023-01-29T12:33:44.883Z,3.84
2023-01-29T12:36:18.375Z,3.86
2023-01-29T12:38:46.520Z,3.82
2023-01-29T12:41:26.581Z,3.85
2023-01-29T12:43:57.474Z,3.87
2023-01-29T12:46:28.620Z,3.88
2023-01-29T12:48:58.816Z,3.92
2023-01-29T12:51:30.846Z,3.93
2023-01-29T12:54:02.182Z,3.95
2023-01-29T12:56:34.557Z,3.95
2023-01-29T12:59:06.859Z,3.93
2023-01-29T13:01:36.783Z,3.96
2023-01-29T13:04:08.145Z,3.96
2023-01-29T13:06:41.627Z,3.95
2023-01-29T13:09:14.319Z,3.98
2023-01-29T13:11:46.838Z,4.00
2023-01-29T13:14:20.552Z,4.01
2023-01-29T13:16:51.447Z,4.04
2023-01-29T13:19:24.574Z,4.06
2023-01-29T13:21:54.110Z,4.08
2023-01-29T13:24:24.547Z,4.10
2023-01-29T13:26:54.542Z,4.11
2023-01-29T13:29:24.509Z,4.13
2023-01-29T13:31:54.521Z,4.10
2023-01-29T13:34:24.853Z,4.13
2023-01-29T13:36:54.229Z,4.12
2023-01-29T13:39:26.416Z,4.09
2023-01-29T13:41:56.500Z,4.08
2023-01-29T13:44:27.122Z,4.07
2023-01-29T13:47:00.178Z,4.08
2023-01-29T13:49:34.881Z,4.06
2023-01-29T13:52:17.602Z,4.07
2023-01-29T13:54:52.431Z,4.09
2023-01-29T13:57:47.804Z,4.07
2023-01-29T14:00:58.675Z,3.99
2023-01-29T14:04:09.976Z,3.99
2023-01-29T14:06:50.941Z,3.94
2023-01-29T14:09:56.194Z,3.98
2023-01-29T14:12:37.867Z,3.97
2023-01-29T14:15:22.830Z,3.95
2023-01-29T14:18:15.463Z,3.93
2023-01-29T14:20:52.985Z,3.95
2023-01-29T14:23:31.430Z,3.95
2023-01-29T14:26:02.302Z,3.96
2023-01-29T14:28:33.547Z,3.98
2023-01-29T14:31:01.641Z,3.99
2023-01-29T14:33:35.223Z,3.99
2023-01-29T14:36:06.219Z,3.98
2023-01-29T14:38:34.690Z,4.00
2023-01-29T14:41:09.555Z,3.98
2023-01-29T14:43:38.887Z,3.97
2023-01-29T14:46:44.636Z,3.94
2023-01-29T14:49:12.681Z,3.90
2023-01-29T14:51:43.419Z,3.91
2023-01-29T14:54:23.931Z,3.89
2023-01-29T14:57:00.549Z,3.90
2023-01-29T14:59:34.628Z,3.86
2023-01-29T15:02:05.339Z,3.87
2023-01-29T15:04:38.029Z,3.87
2023-01-29T15:07:13.291Z,3.88
2023-01-29T15:09:45.705Z,3.88
2023-01-29T15:12:22.047Z,3.87
2023-01-29T15:15:01.331Z,3.85
2023-01-29T15:17:31.333Z,3.87
2023-01-29T15:19:59.210Z,3.85
2023-01-29T15:22:29.136Z,3.86
2023-01-29T15:25:08.538Z,3.85
2023-01-29T15:27:36.513Z,3.82
2023-01-29T15:30:08.332Z,3.82
2023-01-29T15:32:38.325Z,3.80
2023-01-29T15:35:10.202Z,3.79
2023-01-29T15:37:38.653Z,3.79
2023-01-29T15:40:15.406Z,3.76
2023-01-29T15:42:46.684Z,3.74
2023-01-29T15:45:28.721Z,3.71
2023-01-29T15:48:00.553Z,3.69
2023-01-29T15:50:29.923Z,3.68
2023-01-29T15:52:59.888Z,3.65
2023-01-29T15:55:28.705Z,3.66
2023-01-29T15:57:57.563Z,3.64
2023-01-29T16:00:29.695Z,3.61
2023-01-29T16:02:58.500Z,3.60
2023-01-29T16:05:28.833Z,3.59
2023-01-29T16:07:57.279Z,3.58
2023-01-29T16:10:26.854Z,3.58
2023-01-29T16:12:54.888Z,3.57
2023-01-29T16:15:31.567Z,3.55
2023-01-29T16:18:01.130Z,3.53
2023-01-29T16:20:38.409Z,3.54
2023-01-29T16:23:06.850Z,3.55
2023-01-29T16:25:38.957Z,3.53
2023-01-29T16:28:08.248Z,3.55
2023-01-29T16:30:38.422Z,3.55
2023-01-29T16:33:07.935Z,3.55
2023-01-29T16:35:36.525Z,3.55
2023-01-29T16:38:06.730Z,3.50
2023-01-29T16:40:37.311Z,3.49
2023-01-29T16:43:46.817Z,3.46
2023-01-29T16:46:23.430Z,3.37
2023-01-29T16:48:51.620Z,3.32
2023-01-29T16:51:25.043Z,3.33
2023-01-29T16:54:00.771Z,3.31
2023-01-29T16:56:31.569Z,3.32
2023-01-29T16:58:59.707Z,3.22
2023-01-29T17:01:30.368Z,3.21
2023-01-29T17:04:05.817Z,3.16
2023-01-29T17:06:33.898Z,3.18
2023-01-29T17:09:02.237Z,3.13
2023-01-29T17:11:34.660Z,3.17
2023-01-29T17:14:03.279Z,3.14
2023-01-29T17:16:34.295Z,3.09
2023-01-29T17:19:02.674Z,3.07
2023-01-29T17:21:30.877Z,3.06
2023-01-29T17:23:58.769Z,3.00
2023-01-29T17:26:26.957Z,3.03
2023-01-29T17:28:55.381Z,3.01
2023-01-29T17:31:23.790Z,3.00
2023-01-29T17:33:53.154Z,2.97
2023-01-29T17:36:21.147Z,2.94
2023-01-29T17:38:49.047Z,2.95
2023-01-29T17:41:20.407Z,2.96
2023-01-29T17:43:48.629Z,2.95
2023-01-29T17:46:18.356Z,2.95
2023-01-29T17:48:49.195Z,2.90
2023-01-29T17:51:19.187Z,2.92
2023-01-29T17:53:47.778Z,2.94
2023-01-29T17:56:19.585Z,2.91
2023-01-29T17:58:47.539Z,2.90
2023-01-29T18:01:15.492Z,2.95
2023-01-29T18:03:43.511Z,2.96
2023-01-29T18:06:12.779Z,2.94
2023-01-29T18:08:42.067Z,2.94
2023-01-29T18:11:12.238Z,2.98
2023-01-29T18:14:13.771Z,2.93
2023-01-29T18:16:43.430Z,2.91
2023-01-29T18:19:15.238Z,2.95
2023-01-29T18:21:43.167Z,2.89
2023-01-29T18:24:12.464Z,2.90
2023-01-29T18:29:30.267Z,2.89
2023-01-29T18:31:58.594Z,2.90
2023-01-29T18:34:26.624Z,2.86
2023-01-29T18:36:54.547Z,2.86
2023-01-29T18:39:24.022Z,2.89
2023-01-29T18:41:52.112Z,2.89
2023-01-29T18:44:20.230Z,2.90
2023-01-29T18:46:48.140Z,2.89
2023-01-29T18:49:16.055Z,2.89
2023-01-29T18:51:44.034Z,2.92
2023-01-29T18:54:12.916Z,2.90
2023-01-29T18:57:13.295Z,2.88
2023-01-29T18:59:30.314Z,2.90
2023-01-29T19:01:58.363Z,2.93
2023-01-29T19:04:26.327Z,2.91
2023-01-29T19:06:54.226Z,2.91
2023-01-29T19:09:22.180Z,2.94
2023-01-29T19:11:51.511Z,2.90
2023-01-29T19:14:19.535Z,2.91
2023-01-29T19:16:47.456Z,2.93
2023-01-29T19:19:15.452Z,2.96
2023-01-29T19:21:43.410Z,2.98
2023-01-29T19:24:11.992Z,2.94
2023-01-29T19:26:39.980Z,2.92
2023-01-29T19:29:09.684Z,2.93
2023-01-29T19:31:37.639Z,2.96
2023-01-29T19:34:05.612Z,2.96
2023-01-29T19:36:33.533Z,2.97
2023-01-29T19:39:01.419Z,2.94
2023-01-29T19:41:29.429Z,2.93
2023-01-29T19:43:57.333Z,2.97
2023-01-29T19:46:26.655Z,2.99
2023-01-29T19:48:54.938Z,2.96
2023-01-29T19:51:23.412Z,2.96
2023-01-29T19:53:51.312Z,2.95
2023-01-29T19:56:20.048Z,2.96
2023-01-29T19:58:48.850Z,2.94
2023-01-29T20:01:18.355Z,2.99
2023-01-29T20:03:49.172Z,2.99
2023-01-29T20:06:18.446Z,2.98
2023-01-29T20:08:47.076Z,2.98
2023-01-29T20:11:15.611Z,2.99
2023-01-29T20:13:43.515Z,3.01
2023-01-29T20:16:11.477Z,3.01
2023-01-29T20:18:39.411Z,3.01
2023-01-29T20:21:10.340Z,3.02
2023-01-29T20:23:39.014Z,3.04
2023-01-29T20:26:07.349Z,3.06
2023-01-29T20:28:35.835Z,3.07
2023-01-29T20:31:04.181Z,3.08
2023-01-29T20:33:32.339Z,3.08
2023-01-29T20:36:01.889Z,3.11
2023-01-29T20:38:31.849Z,3.11
2023-01-29T20:41:04.468Z,3.09
2023-01-29T20:43:32.399Z,3.11
2023-01-29T20:46:00.584Z,3.12
2023-01-29T20:48:28.560Z,3.14
2023-01-29T20:50:56.747Z,3.15
2023-01-29T20:53:24.665Z,3.17
2023-01-29T20:55:54.091Z,3.17
2023-01-29T20:58:22.480Z,3.17
2023-01-29T21:00:50.384Z,3.18
2023-01-29T21:03:18.286Z,3.19
2023-01-29T21:05:46.445Z,3.22
2023-01-29T21:08:14.381Z,3.23
2023-01-29T21:10:43.368Z,3.24
2023-01-29T21:13:12.864Z,3.24
2023-01-29T21:15:40.832Z,3.26
2023-01-29T21:18:08.729Z,3.29
2023-01-29T21:20:36.684Z,3.27
2023-01-29T21:23:06.955Z,3.29
2023-01-29T21:25:35.319Z,3.31
2023-01-29T21:28:04.421Z,3.34
2023-01-29T21:30:34.308Z,3.37
2023-01-29T21:33:02.200Z,3.37
2023-01-29T21:35:30.154Z,3.39
2023-01-29T21:37:58.160Z,3.39
2023-01-29T21:40:26.259Z,3.44
2023-01-29T21:43:11.527Z,3.44
2023-01-29T21:45:41.530Z,3.40
2023-01-29T21:48:10.385Z,3.45
2023-01-29T21:50:38.850Z,3.49
2023-01-29T21:53:07.055Z,3.49
2023-01-29T21:55:35.004Z,3.49
2023-01-29T21:58:02.967Z,3.47
2023-01-29T22:00:31.017Z,3.52
2023-01-29T22:03:00.516Z,3.52
2023-01-29T22:05:29.189Z,3.54
2023-01-29T22:07:57.479Z,3.56
2023-01-29T22:10:25.533Z,3.52
2023-01-29T22:12:55.553Z,3.50
2023-01-29T22:15:24.093Z,3.48
2023-01-29T22:17:52.228Z,3.45
2023-01-29T22:20:29.557Z,3.43
2023-01-29T22:22:59.482Z,3.41
2023-01-29T22:25:27.930Z,3.38
2023-01-29T22:27:55.851Z,3.43
2023-01-29T22:30:24.275Z,3.38
2023-01-29T22:32:52.250Z,3.37
2023-01-29T22:35:21.567Z,3.40
2023-01-29T22:37:49.471Z,3.42
2023-01-29T22:40:17.817Z,3.42
2023-01-29T22:42:45.929Z,3.40
2023-01-29T22:45:13.831Z,3.40
2023-01-29T22:47:41.764Z,3.41
2023-01-29T22:50:10.843Z,3.39
2023-01-29T22:52:42.643Z,3.38
2023-01-29T22:55:12.227Z,3.43
2023-01-29T22:57:40.575Z,3.42
2023-01-29T23:00:11.549Z,3.43
2023-01-29T23:02:39.513Z,3.46
2023-01-29T23:05:08.446Z,3.48
2023-01-29T23:07:36.474Z,3.42
2023-01-29T23:10:07.237Z,3.48
2023-01-29T23:12:35.199Z,3.42
2023-01-29T23:15:03.134Z,3.49
2023-01-29T23:17:31.143Z,3.50
2023-01-29T23:19:59.121Z,3.52
2023-01-29T23:22:27.076Z,3.50
2023-01-29T23:24:55.035Z,3.53
2023-01-29T23:27:23.308Z,3.55
2023-01-29T23:29:51.229Z,3.58
2023-01-29T23:32:20.483Z,3.60
2023-01-29T23:34:48.516Z,3.60
2023-01-29T23:37:16.422Z,3.61
2023-01-29T23:39:44.308Z,3.61
2023-01-29T23:42:12.490Z,3.64
2023-01-29T23:44:41.825Z,3.65
2023-01-29T23:47:10.219Z,3.67
2023-01-29T23:49:38.451Z,3.68
2023-01-29T23:52:06.707Z,3.67
2023-01-29T23:54:34.617Z,3.66
2023-01-29T23:57:02.595Z,3.73
2023-01-29T23:59:30.574Z,3.71
